sensor_id;sensor_type;location;lat;lon;timestamp;P1;durP1;ratioP1;P2;durP2;ratioP2
35084;SDS011;21267;51.032;6.998;2023-02-03T00:01:55;10.18;;;5.53;;
35084;SDS011;21267;51.032;6.998;2023-02-03T00:04:22;5.35;;;4.63;;
35084;SDS011;21267;51.032;6.998;2023-02-03T00:06:49;11.82;;;7.30;;
35084;SDS011;21267;51.032;6.998;2023-02-03T00:09:16;6.72;;;3.70;;
35084;SDS011;21267;51.032;6.998;2023-02-03T00:11:44;11.50;;;5.85;;
35084;SDS011;21267;51.032;6.998;2023-02-03T00:14:10;11.05;;;5.63;;
35084;SDS011;21267;51.032;6.998;2023-02-03T00:16:37;11.93;;;6.57;;
35084;SDS011;21267;51.032;6.998;2023-02-03T00:19:04;4.82;;;2.85;;
35084;SDS011;21267;51.032;6.998;2023-02-03T00:21:31;13.82;;;6.22;;
35084;SDS011;21267;51.032;6.998;2023-02-03T00:23:57;6.53;;;3.17;;
35084;SDS011;21267;51.032;6.998;2023-02-03T00:26:24;11.63;;;5.53;;
35084;SDS011;21267;51.032;6.998;2023-02-03T00:28:53;6.90;;;4.63;;
35084;SDS011;21267;51.032;6.998;2023-02-03T00:31:21;5.50;;;3.30;;
35084;SDS011;21267;51.032;6.998;2023-02-03T00:33:55;9.73;;;4.63;;
35084;SDS011;21267;51.032;6.998;2023-02-03T00:36:23;8.63;;;4.95;;
35084;SDS011;21267;51.032;6.998;2023-02-03T00:38:51;7.90;;;2.53;;
35084;SDS011;21267;51.032;6.998;2023-02-03T00:41:19;4.78;;;3.55;;
35084;SDS011;21267;51.032;6.998;2023-02-03T00:46:13;9.43;;;4.30;;
35084;SDS011;21267;51.032;6.998;2023-02-03T00:48:41;8.75;;;3.95;;
35084;SDS011;21267;51.032;6.998;2023-02-03T00:51:07;10.63;;;4.38;;
35084;SDS011;21267;51.032;6.998;2023-02-03T00:53:34;9.32;;;4.22;;
35084;SDS011;21267;51.032;6.998;2023-02-03T00:56:01;7.63;;;4.43;;
35084;SDS011;21267;51.032;6.998;2023-02-03T01:01:42;8.95;;;4.57;;
35084;SDS011;21267;51.032;6.998;2023-02-03T01:04:12;9.18;;;4.07;;
35084;SDS011;21267;51.032;6.998;2023-02-03T01:06:45;16.17;;;3.65;;
35084;SDS011;21267;51.032;6.998;2023-02-03T01:09:19;7.40;;;3.55;;
35084;SDS011;21267;51.032;6.998;2023-02-03T01:11:50;7.07;;;3.47;;
35084;SDS011;21267;51.032;6.998;2023-02-03T01:14:18;6.80;;;3.40;;
35084;SDS011;21267;51.032;6.998;2023-02-03T01:16:47;6.28;;;3.88;;
35084;SDS011;21267;51.032;6.998;2023-02-03T01:19:14;7.80;;;4.32;;
35084;SDS011;21267;51.032;6.998;2023-02-03T01:21:53;12.20;;;4.68;;
35084;SDS011;21267;51.032;6.998;2023-02-03T01:24:35;8.13;;;2.92;;
35084;SDS011;21267;51.032;6.998;2023-02-03T01:27:10;7.50;;;3.63;;
35084;SDS011;21267;51.032;6.998;2023-02-03T01:29:39;11.70;;;3.53;;
35084;SDS011;21267;51.032;6.998;2023-02-03T01:32:06;8.90;;;3.45;;
35084;SDS011;21267;51.032;6.998;2023-02-03T01:34:33;6.47;;;2.40;;
35084;SDS011;21267;51.032;6.998;2023-02-03T01:37:02;9.63;;;3.38;;
35084;SDS011;21267;51.032;6.998;2023-02-03T01:39:33;7.15;;;3.55;;
35084;SDS011;21267;51.032;6.998;2023-02-03T01:42:00;8.73;;;3.08;;
35084;SDS011;21267;51.032;6.998;2023-02-03T01:47:49;4.45;;;2.42;;
35084;SDS011;21267;51.032;6.998;2023-02-03T01:52:39;6.55;;;3.55;;
35084;SDS011;21267;51.032;6.998;2023-02-03T01:55:11;8.93;;;3.65;;
35084;SDS011;21267;51.032;6.998;2023-02-03T01:57:45;6.28;;;2.50;;
35084;SDS011;21267;51.032;6.998;2023-02-03T02:00:18;6.13;;;2.67;;
35084;SDS011;21267;51.032;6.998;2023-02-03T02:02:45;5.90;;;2.13;;
35084;SDS011;21267;51.032;6.998;2023-02-03T02:05:30;5.55;;;2.05;;
35084;SDS011;21267;51.032;6.998;2023-02-03T02:07:59;11.60;;;3.88;;
35084;SDS011;21267;51.032;6.998;2023-02-03T02:10:29;6.35;;;2.33;;
35084;SDS011;21267;51.032;6.998;2023-02-03T02:12:59;7.88;;;2.92;;
35084;SDS011;21267;51.032;6.998;2023-02-03T02:32:27;4.90;;;2.13;;
35084;SDS011;21267;51.032;6.998;2023-02-03T02:35:14;10.00;;;3.38;;
35084;SDS011;21267;51.032;6.998;2023-02-03T02:37:47;6.60;;;1.52;;
35084;SDS011;21267;51.032;6.998;2023-02-03T02:40:37;8.73;;;3.08;;
35084;SDS011;21267;51.032;6.998;2023-02-03T02:43:38;7.10;;;2.15;;
35084;SDS011;21267;51.032;6.998;2023-02-03T02:46:13;7.70;;;2.97;;
35084;SDS011;21267;51.032;6.998;2023-02-03T02:48:51;5.25;;;2.75;;
35084;SDS011;21267;51.032;6.998;2023-02-03T02:51:38;5.93;;;3.17;;
35084;SDS011;21267;51.032;6.998;2023-02-03T02:54:10;6.85;;;2.78;;
35084;SDS011;21267;51.032;6.998;2023-02-03T02:56:44;6.50;;;2.67;;
35084;SDS011;21267;51.032;6.998;2023-02-03T02:59:39;4.78;;;2.10;;
35084;SDS011;21267;51.032;6.998;2023-02-03T03:02:07;10.65;;;2.40;;
35084;SDS011;21267;51.032;6.998;2023-02-03T03:04:36;6.43;;;1.88;;
35084;SDS011;21267;51.032;6.998;2023-02-03T03:07:05;6.25;;;2.13;;
35084;SDS011;21267;51.032;6.998;2023-02-03T03:09:38;6.05;;;2.13;;
35084;SDS011;21267;51.032;6.998;2023-02-03T03:12:16;1.95;;;1.40;;
35084;SDS011;21267;51.032;6.998;2023-02-03T03:14:55;9.20;;;4.03;;
35084;SDS011;21267;51.032;6.998;2023-02-03T03:17:29;2.75;;;1.45;;
35084;SDS011;21267;51.032;6.998;2023-02-03T03:20:01;9.68;;;4.40;;
35084;SDS011;21267;51.032;6.998;2023-02-03T03:22:36;8.77;;;3.97;;
35084;SDS011;21267;51.032;6.998;2023-02-03T03:25:27;3.60;;;2.33;;
35084;SDS011;21267;51.032;6.998;2023-02-03T03:28:09;7.70;;;3.38;;
35084;SDS011;21267;51.032;6.998;2023-02-03T03:30:47;6.72;;;3.33;;
35084;SDS011;21267;51.032;6.998;2023-02-03T03:33:14;2.75;;;1.85;;
35084;SDS011;21267;51.032;6.998;2023-02-03T03:35:46;10.90;;;3.25;;
35084;SDS011;21267;51.032;6.998;2023-02-03T03:38:31;5.25;;;2.72;;
35084;SDS011;21267;51.032;6.998;2023-02-03T03:41:32;6.20;;;1.98;;
35084;SDS011;21267;51.032;6.998;2023-02-03T03:44:00;5.53;;;2.75;;
35084;SDS011;21267;51.032;6.998;2023-02-03T03:46:32;4.72;;;2.58;;
35084;SDS011;21267;51.032;6.998;2023-02-03T03:49:05;6.75;;;3.45;;
35084;SDS011;21267;51.032;6.998;2023-02-03T03:51:41;7.20;;;3.17;;
35084;SDS011;21267;51.032;6.998;2023-02-03T03:54:18;3.97;;;2.33;;
35084;SDS011;21267;51.032;6.998;2023-02-03T03:56:49;6.90;;;2.58;;
35084;SDS011;21267;51.032;6.998;2023-02-03T03:59:22;4.43;;;1.55;;
35084;SDS011;21267;51.032;6.998;2023-02-03T04:01:52;10.35;;;2.75;;
35084;SDS011;21267;51.032;6.998;2023-02-03T04:04:23;5.53;;;1.90;;
35084;SDS011;21267;51.032;6.998;2023-02-03T04:06:52;5.18;;;2.92;;
35084;SDS011;21267;51.032;6.998;2023-02-03T04:09:21;9.32;;;3.50;;
35084;SDS011;21267;51.032;6.998;2023-02-03T04:11:48;9.73;;;3.40;;
35084;SDS011;21267;51.032;6.998;2023-02-03T04:14:28;5.70;;;2.20;;
35084;SDS011;21267;51.032;6.998;2023-02-03T04:16:57;4.95;;;1.55;;
35084;SDS011;21267;51.032;6.998;2023-02-03T04:19:34;4.70;;;2.03;;
35084;SDS011;21267;51.032;6.998;2023-02-03T04:22:06;2.90;;;1.88;;
35084;SDS011;21267;51.032;6.998;2023-02-03T04:24:33;2.35;;;1.63;;
35084;SDS011;21267;51.032;6.998;2023-02-03T04:26:59;5.93;;;2.42;;
35084;SDS011;21267;51.032;6.998;2023-02-03T04:29:32;8.63;;;2.97;;
35084;SDS011;21267;51.032;6.998;2023-02-03T04:32:02;5.80;;;1.83;;
35084;SDS011;21267;51.032;6.998;2023-02-03T04:34:33;4.78;;;1.95;;
35084;SDS011;21267;51.032;6.998;2023-02-03T04:37:00;7.85;;;2.88;;
35084;SDS011;21267;51.032;6.998;2023-02-03T04:39:29;5.90;;;2.78;;
35084;SDS011;21267;51.032;6.998;2023-02-03T04:41:58;4.88;;;1.98;;
35084;SDS011;21267;51.032;6.998;2023-02-03T04:46:52;3.85;;;1.58;;
35084;SDS011;21267;51.032;6.998;2023-02-03T04:49:19;5.22;;;2.45;;
35084;SDS011;21267;51.032;6.998;2023-02-03T04:51:48;4.18;;;1.50;;
35084;SDS011;21267;51.032;6.998;2023-02-03T04:54:15;8.32;;;2.70;;
35084;SDS011;21267;51.032;6.998;2023-02-03T04:56:42;7.13;;;2.88;;
35084;SDS011;21267;51.032;6.998;2023-02-03T04:59:08;4.50;;;2.25;;
35084;SDS011;21267;51.032;6.998;2023-02-03T05:01:35;3.95;;;1.45;;
35084;SDS011;21267;51.032;6.998;2023-02-03T05:04:02;3.58;;;1.73;;
35084;SDS011;21267;51.032;6.998;2023-02-03T05:06:32;4.05;;;1.67;;
35084;SDS011;21267;51.032;6.998;2023-02-03T05:09:00;4.30;;;2.03;;
35084;SDS011;21267;51.032;6.998;2023-02-03T05:13:54;4.18;;;1.52;;
35084;SDS011;21267;51.032;6.998;2023-02-03T05:16:21;7.70;;;2.40;;
35084;SDS011;21267;51.032;6.998;2023-02-03T05:18:48;8.35;;;3.10;;
35084;SDS011;21267;51.032;6.998;2023-02-03T05:21:16;5.03;;;1.83;;
35084;SDS011;21267;51.032;6.998;2023-02-03T05:23:43;9.90;;;2.33;;
35084;SDS011;21267;51.032;6.998;2023-02-03T05:26:09;5.25;;;1.67;;
35084;SDS011;21267;51.032;6.998;2023-02-03T05:28:36;5.97;;;2.33;;
35084;SDS011;21267;51.032;6.998;2023-02-03T05:31:06;5.88;;;1.70;;
35084;SDS011;21267;51.032;6.998;2023-02-03T05:33:35;7.07;;;2.25;;
35084;SDS011;21267;51.032;6.998;2023-02-03T05:36:06;7.78;;;2.50;;
35084;SDS011;21267;51.032;6.998;2023-02-03T05:38:34;4.80;;;2.22;;
35084;SDS011;21267;51.032;6.998;2023-02-03T05:41:04;7.47;;;1.83;;
35084;SDS011;21267;51.032;6.998;2023-02-03T05:43:54;7.97;;;1.83;;
35084;SDS011;21267;51.032;6.998;2023-02-03T05:48:52;7.25;;;2.47;;
35084;SDS011;21267;51.032;6.998;2023-02-03T05:51:20;7.68;;;2.22;;
35084;SDS011;21267;51.032;6.998;2023-02-03T05:53:54;7.32;;;2.20;;
35084;SDS011;21267;51.032;6.998;2023-02-03T05:56:22;24.73;;;11.68;;
35084;SDS011;21267;51.032;6.998;2023-02-03T05:58:50;4.93;;;2.47;;
35084;SDS011;21267;51.032;6.998;2023-02-03T06:01:20;8.70;;;2.80;;
35084;SDS011;21267;51.032;6.998;2023-02-03T06:03:47;4.45;;;1.63;;
35084;SDS011;21267;51.032;6.998;2023-02-03T06:06:15;5.57;;;1.90;;
35084;SDS011;21267;51.032;6.998;2023-02-03T06:08:43;4.13;;;2.00;;
35084;SDS011;21267;51.032;6.998;2023-02-03T06:11:10;5.25;;;1.80;;
35084;SDS011;21267;51.032;6.998;2023-02-03T06:13:46;10.20;;;1.20;;
35084;SDS011;21267;51.032;6.998;2023-02-03T06:16:15;2.38;;;1.05;;
35084;SDS011;21267;51.032;6.998;2023-02-03T06:18:43;0.88;;;0.60;;
35084;SDS011;21267;51.032;6.998;2023-02-03T06:21:09;5.85;;;1.63;;
35084;SDS011;21267;51.032;6.998;2023-02-03T06:23:36;5.60;;;1.85;;
35084;SDS011;21267;51.032;6.998;2023-02-03T06:26:02;10.40;;;1.20;;
35084;SDS011;21267;51.032;6.998;2023-02-03T06:28:29;8.77;;;1.63;;
35084;SDS011;21267;51.032;6.998;2023-02-03T06:31:04;7.13;;;1.58;;
35084;SDS011;21267;51.032;6.998;2023-02-03T06:33:31;7.70;;;1.17;;
35084;SDS011;21267;51.032;6.998;2023-02-03T06:38:27;6.00;;;1.35;;
35084;SDS011;21267;51.032;6.998;2023-02-03T06:40:56;6.32;;;0.85;;
35084;SDS011;21267;51.032;6.998;2023-02-03T06:45:50;3.35;;;1.25;;
35084;SDS011;21267;51.032;6.998;2023-02-03T06:48:17;7.38;;;1.75;;
35084;SDS011;21267;51.032;6.998;2023-02-03T06:50:46;8.68;;;0.90;;
35084;SDS011;21267;51.032;6.998;2023-02-03T06:53:17;4.07;;;1.00;;
35084;SDS011;21267;51.032;6.998;2023-02-03T06:55:45;4.63;;;1.10;;
35084;SDS011;21267;51.032;6.998;2023-02-03T06:58:14;3.15;;;0.65;;
35084;SDS011;21267;51.032;6.998;2023-02-03T07:00:42;3.05;;;0.70;;
35084;SDS011;21267;51.032;6.998;2023-02-03T07:03:13;7.07;;;1.70;;
35084;SDS011;21267;51.032;6.998;2023-02-03T07:05:40;8.50;;;1.63;;
35084;SDS011;21267;51.032;6.998;2023-02-03T07:08:09;4.72;;;1.42;;
35084;SDS011;21267;51.032;6.998;2023-02-03T07:10:36;13.40;;;1.63;;
35084;SDS011;21267;51.032;6.998;2023-02-03T07:13:03;1.30;;;0.65;;
35084;SDS011;21267;51.032;6.998;2023-02-03T07:15:39;2.20;;;0.73;;
35084;SDS011;21267;51.032;6.998;2023-02-03T07:18:06;4.43;;;0.68;;
35084;SDS011;21267;51.032;6.998;2023-02-03T07:20:46;2.17;;;1.17;;
35084;SDS011;21267;51.032;6.998;2023-02-03T07:23:14;3.42;;;1.35;;
35084;SDS011;21267;51.032;6.998;2023-02-03T07:25:41;2.88;;;0.70;;
35084;SDS011;21267;51.032;6.998;2023-02-03T07:33:46;4.35;;;1.02;;
35084;SDS011;21267;51.032;6.998;2023-02-03T07:39:35;6.32;;;0.88;;
35084;SDS011;21267;51.032;6.998;2023-02-03T07:42:25;4.45;;;1.02;;
35084;SDS011;21267;51.032;6.998;2023-02-03T07:45:27;6.10;;;1.35;;
35084;SDS011;21267;51.032;6.998;2023-02-03T07:48:57;3.35;;;1.05;;
35084;SDS011;21267;51.032;6.998;2023-02-03T07:51:54;6.53;;;1.17;;
35084;SDS011;21267;51.032;6.998;2023-02-03T07:54:49;2.83;;;0.93;;
35084;SDS011;21267;51.032;6.998;2023-02-03T07:57:56;6.75;;;1.17;;
35084;SDS011;21267;51.032;6.998;2023-02-03T08:00:48;3.78;;;0.82;;
35084;SDS011;21267;51.032;6.998;2023-02-03T08:03:23;9.95;;;1.55;;
35084;SDS011;21267;51.032;6.998;2023-02-03T08:06:23;4.28;;;1.15;;
35084;SDS011;21267;51.032;6.998;2023-02-03T08:08:59;4.03;;;1.05;;
35084;SDS011;21267;51.032;6.998;2023-02-03T08:12:04;5.07;;;1.45;;
35084;SDS011;21267;51.032;6.998;2023-02-03T08:15:06;1.25;;;0.52;;
35084;SDS011;21267;51.032;6.998;2023-02-03T08:17:50;7.57;;;0.95;;
35084;SDS011;21267;51.032;6.998;2023-02-03T08:21:06;4.28;;;0.82;;
35084;SDS011;21267;51.032;6.998;2023-02-03T08:23:44;3.72;;;0.82;;
35084;SDS011;21267;51.032;6.998;2023-02-03T08:26:26;3.22;;;0.65;;
35084;SDS011;21267;51.032;6.998;2023-02-03T08:29:03;3.60;;;1.00;;
35084;SDS011;21267;51.032;6.998;2023-02-03T08:31:35;6.55;;;1.88;;
35084;SDS011;21267;51.032;6.998;2023-02-03T08:34:18;2.78;;;0.80;;
35084;SDS011;21267;51.032;6.998;2023-02-03T08:37:06;4.63;;;1.20;;
35084;SDS011;21267;51.032;6.998;2023-02-03T08:40:40;2.58;;;0.80;;
35084;SDS011;21267;51.032;6.998;2023-02-03T08:43:17;8.05;;;1.60;;
35084;SDS011;21267;51.032;6.998;2023-02-03T08:49:07;0.25;;;0.20;;
35084;SDS011;21267;51.032;6.998;2023-02-03T08:52:36;3.95;;;1.15;;
35084;SDS011;21267;51.032;6.998;2023-02-03T08:58:34;3.92;;;1.13;;
35084;SDS011;21267;51.032;6.998;2023-02-03T09:01:06;6.65;;;1.38;;
35084;SDS011;21267;51.032;6.998;2023-02-03T09:07:16;3.05;;;0.43;;
35084;SDS011;21267;51.032;6.998;2023-02-03T09:10:26;5.18;;;1.05;;
35084;SDS011;21267;51.032;6.998;2023-02-03T09:13:02;2.72;;;0.50;;
35084;SDS011;21267;51.032;6.998;2023-02-03T09:15:29;1.25;;;0.75;;
35084;SDS011;21267;51.032;6.998;2023-02-03T09:18:07;2.05;;;0.60;;
35084;SDS011;21267;51.032;6.998;2023-02-03T09:20:51;5.43;;;1.33;;
35084;SDS011;21267;51.032;6.998;2023-02-03T09:24:05;2.13;;;0.70;;
35084;SDS011;21267;51.032;6.998;2023-02-03T09:26:35;4.88;;;1.80;;
35084;SDS011;21267;51.032;6.998;2023-02-03T09:29:04;3.53;;;2.00;;
35084;SDS011;21267;51.032;6.998;2023-02-03T09:31:34;2.60;;;0.85;;
35084;SDS011;21267;51.032;6.998;2023-02-03T09:34:14;6.82;;;0.95;;
35084;SDS011;21267;51.032;6.998;2023-02-03T09:37:01;4.75;;;1.52;;
35084;SDS011;21267;51.032;6.998;2023-02-03T09:40:10;2.88;;;2.03;;
35084;SDS011;21267;51.032;6.998;2023-02-03T09:45:48;5.45;;;2.00;;
35084;SDS011;21267;51.032;6.998;2023-02-03T09:48:36;1.65;;;1.17;;
35084;SDS011;21267;51.032;6.998;2023-02-03T09:51:31;4.55;;;2.97;;
35084;SDS011;21267;51.032;6.998;2023-02-03T09:54:22;1.65;;;1.20;;
35084;SDS011;21267;51.032;6.998;2023-02-03T09:57:20;2.70;;;1.50;;
35084;SDS011;21267;51.032;6.998;2023-02-03T09:59:50;7.53;;;2.22;;
35084;SDS011;21267;51.032;6.998;2023-02-03T10:11:12;5.30;;;2.30;;
35084;SDS011;21267;51.032;6.998;2023-02-03T10:14:10;5.60;;;1.88;;
35084;SDS011;21267;51.032;6.998;2023-02-03T10:19:48;3.88;;;2.00;;
35084;SDS011;21267;51.032;6.998;2023-02-03T10:22:36;7.95;;;2.33;;
35084;SDS011;21267;51.032;6.998;2023-02-03T10:25:19;5.00;;;2.28;;
35084;SDS011;21267;51.032;6.998;2023-02-03T10:27:54;8.15;;;2.80;;
35084;SDS011;21267;51.032;6.998;2023-02-03T10:30:28;3.88;;;1.67;;
35084;SDS011;21267;51.032;6.998;2023-02-03T10:33:10;3.35;;;1.52;;
35084;SDS011;21267;51.032;6.998;2023-02-03T10:35:45;4.90;;;2.33;;
35084;SDS011;21267;51.032;6.998;2023-02-03T10:41:09;2.00;;;1.85;;
35084;SDS011;21267;51.032;6.998;2023-02-03T10:43:39;4.63;;;2.53;;
35084;SDS011;21267;51.032;6.998;2023-02-03T10:46:19;3.58;;;2.72;;
35084;SDS011;21267;51.032;6.998;2023-02-03T10:48:56;9.60;;;4.35;;
35084;SDS011;21267;51.032;6.998;2023-02-03T10:51:28;3.05;;;2.08;;
35084;SDS011;21267;51.032;6.998;2023-02-03T10:59:44;3.67;;;2.53;;
35084;SDS011;21267;51.032;6.998;2023-02-03T11:02:23;3.85;;;1.90;;
35084;SDS011;21267;51.032;6.998;2023-02-03T11:07:56;7.80;;;3.03;;
35084;SDS011;21267;51.032;6.998;2023-02-03T11:10:36;4.60;;;2.90;;
35084;SDS011;21267;51.032;6.998;2023-02-03T11:13:22;8.23;;;4.38;;
35084;SDS011;21267;51.032;6.998;2023-02-03T11:16:02;3.17;;;2.40;;
35084;SDS011;21267;51.032;6.998;2023-02-03T11:19:03;4.85;;;2.45;;
35084;SDS011;21267;51.032;6.998;2023-02-03T11:26:55;5.15;;;3.00;;
35084;SDS011;21267;51.032;6.998;2023-02-03T11:29:31;12.88;;;3.10;;
35084;SDS011;21267;51.032;6.998;2023-02-03T11:32:03;6.50;;;3.70;;
35084;SDS011;21267;51.032;6.998;2023-02-03T11:34:57;4.43;;;2.95;;
35084;SDS011;21267;51.032;6.998;2023-02-03T11:37:44;4.03;;;3.35;;
35084;SDS011;21267;51.032;6.998;2023-02-03T11:42:44;7.63;;;4.47;;
35084;SDS011;21267;51.032;6.998;2023-02-03T11:45:25;5.75;;;2.92;;
35084;SDS011;21267;51.032;6.998;2023-02-03T11:53:39;10.43;;;6.32;;
35084;SDS011;21267;51.032;6.998;2023-02-03T12:05:03;7.63;;;5.13;;
35084;SDS011;21267;51.032;6.998;2023-02-03T12:07:40;7.03;;;4.28;;
35084;SDS011;21267;51.032;6.998;2023-02-03T12:18:43;10.23;;;6.38;;
35084;SDS011;21267;51.032;6.998;2023-02-03T12:24:35;8.68;;;5.55;;
35084;SDS011;21267;51.032;6.998;2023-02-03T12:32:48;8.30;;;6.05;;
35084;SDS011;21267;51.032;6.998;2023-02-03T12:35:36;10.10;;;7.57;;
35084;SDS011;21267;51.032;6.998;2023-02-03T12:38:15;5.03;;;4.13;;
35084;SDS011;21267;51.032;6.998;2023-02-03T12:40:57;8.63;;;4.13;;
35084;SDS011;21267;51.032;6.998;2023-02-03T12:49:02;12.93;;;7.20;;
35084;SDS011;21267;51.032;6.998;2023-02-03T12:57:24;6.05;;;4.75;;
35084;SDS011;21267;51.032;6.998;2023-02-03T13:02:51;9.68;;;4.03;;
35084;SDS011;21267;51.032;6.998;2023-02-03T13:05:37;6.40;;;4.45;;
35084;SDS011;21267;51.032;6.998;2023-02-03T13:08:20;11.68;;;5.40;;
35084;SDS011;21267;51.032;6.998;2023-02-03T13:14:13;5.40;;;4.90;;
35084;SDS011;21267;51.032;6.998;2023-02-03T13:16:43;4.80;;;4.30;;
35084;SDS011;21267;51.032;6.998;2023-02-03T13:19:20;14.10;;;5.97;;
35084;SDS011;21267;51.032;6.998;2023-02-03T13:21:51;5.57;;;4.63;;
35084;SDS011;21267;51.032;6.998;2023-02-03T13:24:19;10.50;;;5.22;;
35084;SDS011;21267;51.032;6.998;2023-02-03T13:32:35;8.57;;;5.30;;
35084;SDS011;21267;51.032;6.998;2023-02-03T13:35:34;4.60;;;3.45;;
35084;SDS011;21267;51.032;6.998;2023-02-03T13:41:20;4.50;;;3.63;;
35084;SDS011;21267;51.032;6.998;2023-02-03T13:43:55;6.35;;;4.20;;
35084;SDS011;21267;51.032;6.998;2023-02-03T13:46:25;3.58;;;2.83;;
35084;SDS011;21267;51.032;6.998;2023-02-03T13:48:56;6.70;;;4.80;;
35084;SDS011;21267;51.032;6.998;2023-02-03T13:51:41;7.60;;;4.63;;
35084;SDS011;21267;51.032;6.998;2023-02-03T13:54:35;4.43;;;3.42;;
35084;SDS011;21267;51.032;6.998;2023-02-03T13:57:17;8.68;;;5.45;;
35084;SDS011;21267;51.032;6.998;2023-02-03T13:59:50;6.65;;;3.40;;
35084;SDS011;21267;51.032;6.998;2023-02-03T14:04:50;5.13;;;3.40;;
35084;SDS011;21267;51.032;6.998;2023-02-03T14:07:32;6.55;;;4.60;;
35084;SDS011;21267;51.032;6.998;2023-02-03T14:23:05;4.93;;;2.13;;
35084;SDS011;21267;51.032;6.998;2023-02-03T14:25:37;6.03;;;3.42;;
35084;SDS011;21267;51.032;6.998;2023-02-03T14:28:13;2.22;;;1.90;;
35084;SDS011;21267;51.032;6.998;2023-02-03T14:36:35;5.28;;;1.83;;
35084;SDS011;21267;51.032;6.998;2023-02-03T14:45:01;5.82;;;3.08;;
35084;SDS011;21267;51.032;6.998;2023-02-03T14:47:57;4.15;;;2.05;;
35084;SDS011;21267;51.032;6.998;2023-02-03T14:51:02;6.95;;;2.75;;
35084;SDS011;21267;51.032;6.998;2023-02-03T14:59:28;8.05;;;2.47;;
35084;SDS011;21267;51.032;6.998;2023-02-03T15:04:46;1.75;;;1.58;;
35084;SDS011;21267;51.032;6.998;2023-02-03T15:07:34;8.07;;;3.35;;
35084;SDS011;21267;51.032;6.998;2023-02-03T15:10:13;5.80;;;2.60;;
35084;SDS011;21267;51.032;6.998;2023-02-03T15:12:44;4.38;;;1.60;;
35084;SDS011;21267;51.032;6.998;2023-02-03T15:15:14;7.75;;;2.88;;
35084;SDS011;21267;51.032;6.998;2023-02-03T15:17:47;9.85;;;2.45;;
35084;SDS011;21267;51.032;6.998;2023-02-03T15:22:51;6.38;;;2.20;;
35084;SDS011;21267;51.032;6.998;2023-02-03T15:25:20;6.93;;;2.03;;
35084;SDS011;21267;51.032;6.998;2023-02-03T15:27:48;7.90;;;1.55;;
35084;SDS011;21267;51.032;6.998;2023-02-03T15:30:20;6.13;;;2.65;;
35084;SDS011;21267;51.032;6.998;2023-02-03T15:32:54;3.40;;;1.35;;
35084;SDS011;21267;51.032;6.998;2023-02-03T15:35:29;3.13;;;1.92;;
35084;SDS011;21267;51.032;6.998;2023-02-03T15:37:59;10.75;;;4.00;;
35084;SDS011;21267;51.032;6.998;2023-02-03T15:40:41;8.95;;;2.53;;
35084;SDS011;21267;51.032;6.998;2023-02-03T15:43:18;13.45;;;5.50;;
35084;SDS011;21267;51.032;6.998;2023-02-03T15:48:48;6.93;;;4.82;;
35084;SDS011;21267;51.032;6.998;2023-02-03T15:51:41;13.20;;;5.85;;
35084;SDS011;21267;51.032;6.998;2023-02-03T15:56:44;12.02;;;4.35;;
35084;SDS011;21267;51.032;6.998;2023-02-03T15:59:33;12.85;;;4.72;;
35084;SDS011;21267;51.032;6.998;2023-02-03T16:02:20;15.90;;;4.40;;
35084;SDS011;21267;51.032;6.998;2023-02-03T16:05:19;23.55;;;4.15;;
35084;SDS011;21267;51.032;6.998;2023-02-03T16:07:50;11.00;;;3.75;;
35084;SDS011;21267;51.032;6.998;2023-02-03T16:10:26;14.40;;;4.05;;
35084;SDS011;21267;51.032;6.998;2023-02-03T16:13:16;10.82;;;3.53;;
35084;SDS011;21267;51.032;6.998;2023-02-03T16:18:31;13.80;;;3.17;;
35084;SDS011;21267;51.032;6.998;2023-02-03T16:21:02;11.95;;;3.15;;
35084;SDS011;21267;51.032;6.998;2023-02-03T16:23:30;14.18;;;3.63;;
35084;SDS011;21267;51.032;6.998;2023-02-03T16:28:32;14.20;;;3.15;;
35084;SDS011;21267;51.032;6.998;2023-02-03T16:31:18;17.08;;;4.53;;
35084;SDS011;21267;51.032;6.998;2023-02-03T16:36:57;19.20;;;5.63;;
35084;SDS011;21267;51.032;6.998;2023-02-03T16:39:43;17.10;;;6.65;;
35084;SDS011;21267;51.032;6.998;2023-02-03T16:42:38;19.55;;;6.65;;
35084;SDS011;21267;51.032;6.998;2023-02-03T16:45:24;18.80;;;6.72;;
35084;SDS011;21267;51.032;6.998;2023-02-03T16:48:09;30.67;;;5.93;;
35084;SDS011;21267;51.032;6.998;2023-02-03T16:51:08;19.43;;;6.13;;
35084;SDS011;21267;51.032;6.998;2023-02-03T16:53:37;18.83;;;4.90;;
35084;SDS011;21267;51.032;6.998;2023-02-03T16:58:32;18.05;;;6.70;;
35084;SDS011;21267;51.032;6.998;2023-02-03T17:00:59;17.25;;;5.22;;
35084;SDS011;21267;51.032;6.998;2023-02-03T17:03:28;22.20;;;5.30;;
35084;SDS011;21267;51.032;6.998;2023-02-03T17:06:00;15.35;;;4.72;;
35084;SDS011;21267;51.032;6.998;2023-02-03T17:08:39;14.43;;;4.43;;
35084;SDS011;21267;51.032;6.998;2023-02-03T17:11:13;18.48;;;5.35;;
35084;SDS011;21267;51.032;6.998;2023-02-03T17:13:44;17.88;;;5.30;;
35084;SDS011;21267;51.032;6.998;2023-02-03T17:16:13;11.70;;;3.33;;
35084;SDS011;21267;51.032;6.998;2023-02-03T17:18:43;15.13;;;4.22;;
35084;SDS011;21267;51.032;6.998;2023-02-03T17:21:12;15.10;;;4.03;;
35084;SDS011;21267;51.032;6.998;2023-02-03T17:23:41;15.73;;;3.90;;
35084;SDS011;21267;51.032;6.998;2023-02-03T17:26:08;14.27;;;4.35;;
35084;SDS011;21267;51.032;6.998;2023-02-03T17:31:04;22.08;;;8.57;;
35084;SDS011;21267;51.032;6.998;2023-02-03T17:33:33;15.75;;;5.03;;
35084;SDS011;21267;51.032;6.998;2023-02-03T17:36:15;15.43;;;4.35;;
35084;SDS011;21267;51.032;6.998;2023-02-03T17:38:44;32.85;;;15.88;;
35084;SDS011;21267;51.032;6.998;2023-02-03T17:41:26;16.30;;;6.10;;
35084;SDS011;21267;51.032;6.998;2023-02-03T17:44:07;18.23;;;7.03;;
35084;SDS011;21267;51.032;6.998;2023-02-03T17:46:51;15.60;;;7.00;;
35084;SDS011;21267;51.032;6.998;2023-02-03T17:49:31;14.73;;;6.32;;
35084;SDS011;21267;51.032;6.998;2023-02-03T17:52:12;16.13;;;9.20;;
35084;SDS011;21267;51.032;6.998;2023-02-03T17:54:52;27.20;;;16.70;;
35084;SDS011;21267;51.032;6.998;2023-02-03T17:57:20;26.33;;;13.75;;
35084;SDS011;21267;51.032;6.998;2023-02-03T17:59:54;27.30;;;13.30;;
35084;SDS011;21267;51.032;6.998;2023-02-03T18:02:22;23.50;;;12.25;;
35084;SDS011;21267;51.032;6.998;2023-02-03T18:05:03;23.42;;;12.85;;
35084;SDS011;21267;51.032;6.998;2023-02-03T18:07:31;21.98;;;11.93;;
35084;SDS011;21267;51.032;6.998;2023-02-03T18:09:58;19.50;;;9.55;;
35084;SDS011;21267;51.032;6.998;2023-02-03T18:12:24;20.92;;;10.43;;
35084;SDS011;21267;51.032;6.998;2023-02-03T18:14:51;25.45;;;11.35;;
35084;SDS011;21267;51.032;6.998;2023-02-03T18:17:17;18.88;;;8.05;;
35084;SDS011;21267;51.032;6.998;2023-02-03T18:19:44;21.70;;;9.73;;
35084;SDS011;21267;51.032;6.998;2023-02-03T18:22:20;22.35;;;10.23;;
35084;SDS011;21267;51.032;6.998;2023-02-03T18:24:47;18.63;;;7.20;;
35084;SDS011;21267;51.032;6.998;2023-02-03T18:27:17;17.95;;;8.70;;
35084;SDS011;21267;51.032;6.998;2023-02-03T18:29:44;19.42;;;8.45;;
35084;SDS011;21267;51.032;6.998;2023-02-03T18:32:12;14.20;;;5.38;;
35084;SDS011;21267;51.032;6.998;2023-02-03T18:34:40;16.67;;;4.82;;
35084;SDS011;21267;51.032;6.998;2023-02-03T18:37:21;18.70;;;4.50;;
35084;SDS011;21267;51.032;6.998;2023-02-03T18:39:48;12.17;;;3.83;;
35084;SDS011;21267;51.032;6.998;2023-02-03T18:42:28;12.50;;;3.58;;
35084;SDS011;21267;51.032;6.998;2023-02-03T18:44:55;10.88;;;3.28;;
35084;SDS011;21267;51.032;6.998;2023-02-03T18:47:22;15.85;;;3.58;;
35084;SDS011;21267;51.032;6.998;2023-02-03T18:49:48;11.50;;;3.63;;
35084;SDS011;21267;51.032;6.998;2023-02-03T18:52:15;18.90;;;4.50;;
35084;SDS011;21267;51.032;6.998;2023-02-03T18:58:38;19.48;;;5.00;;
35084;SDS011;21267;51.032;6.998;2023-02-03T19:01:20;16.05;;;4.47;;
35084;SDS011;21267;51.032;6.998;2023-02-03T19:04:04;13.40;;;4.25;;
35084;SDS011;21267;51.032;6.998;2023-02-03T19:06:45;18.65;;;4.65;;